Hardinsburg, Kentucky
Current Conditions -  °F | °C
As of 4:28 AM on Thursday 18 Dec 2014 (Local Time) from KFTK Reporting Station
Overcast Overcast  
Wind Chill: 28°   Ceiling: 1400
Heat Index: 28°   Visibility: 10mi
Dew Point: 23°   Wind: 3mph
Humidity: 80%   Direction: 10°N
Pressure: 30.24"   Gusts: NA
Location:  37.78°N, 86.46°W
Report Text: KFTK 181028Z AUTO 01003KT 10SM OVC014 M02/M05 A3024 RMK AO2
Loading
Personal Weather Stations






























Interactive Weather Map New forecast layout! Learn more

10-Day Weather Forecast

Advertisements
Track Severe Weather on mobile